sensor_id;sensor_type;location;lat;lon;timestamp;pressure;altitude;pressure_sealevel;temperature;humidity
73974;BME280;62336;-26.094;27.994;2023-04-15T00:00:15;85147.24;;;27.26;11.62
73974;BME280;62336;-26.094;27.994;2023-04-15T00:02:40;85147.40;;;26.86;11.78
73974;BME280;62336;-26.094;27.994;2023-04-15T00:05:06;85146.09;;;27.04;12.25
73974;BME280;62336;-26.094;27.994;2023-04-15T00:07:30;85145.31;;;26.54;12.25
73974;BME280;62336;-26.094;27.994;2023-04-15T00:09:55;85145.53;;;27.20;12.12
73974;BME280;62336;-26.094;27.994;2023-04-15T00:12:20;85142.07;;;26.81;12.31
73974;BME280;62336;-26.094;27.994;2023-04-15T00:14:46;85141.08;;;26.90;12.46
73974;BME280;62336;-26.094;27.994;2023-04-15T00:17:11;85141.28;;;26.87;12.24
73974;BME280;62336;-26.094;27.994;2023-04-15T00:19:35;85140.75;;;27.24;12.16
73974;BME280;62336;-26.094;27.994;2023-04-15T00:22:01;85136.10;;;27.57;12.16
73974;BME280;62336;-26.094;27.994;2023-04-15T00:24:26;85134.71;;;27.24;12.00
73974;BME280;62336;-26.094;27.994;2023-04-15T00:26:52;85131.73;;;27.39;12.20
73974;BME280;62336;-26.094;27.994;2023-04-15T00:29:17;85131.93;;;27.06;11.97
73974;BME280;62336;-26.094;27.994;2023-04-15T00:31:42;85129.20;;;26.77;11.87
73974;BME280;62336;-26.094;27.994;2023-04-15T00:34:07;85129.74;;;27.23;11.75
73974;BME280;62336;-26.094;27.994;2023-04-15T00:36:32;85126.06;;;27.81;11.83
73974;BME280;62336;-26.094;27.994;2023-04-15T00:38:57;85117.69;;;27.69;11.49
73974;BME280;62336;-26.094;27.994;2023-04-15T00:41:23;85114.01;;;27.98;11.57
73974;BME280;62336;-26.094;27.994;2023-04-15T00:43:48;85113.96;;;28.09;11.39
73974;BME280;62336;-26.094;27.994;2023-04-15T00:46:14;85113.35;;;27.46;11.01
73974;BME280;62336;-26.094;27.994;2023-04-15T00:48:38;85113.82;;;27.81;10.82
73974;BME280;62336;-26.094;27.994;2023-04-15T00:51:03;85109.52;;;27.87;10.75
73974;BME280;62336;-26.094;27.994;2023-04-15T00:53:27;85108.26;;;28.14;10.71
73974;BME280;62336;-26.094;27.994;2023-04-15T00:55:53;85108.45;;;28.52;10.52
73974;BME280;62336;-26.094;27.994;2023-04-15T00:58:19;85108.62;;;28.53;10.73
73974;BME280;62336;-26.094;27.994;2023-04-15T01:00:45;85104.71;;;28.26;10.85
73974;BME280;62336;-26.094;27.994;2023-04-15T01:03:11;85099.75;;;28.57;10.87
73974;BME280;62336;-26.094;27.994;2023-04-15T01:05:36;85105.51;;;28.42;10.63
73974;BME280;62336;-26.094;27.994;2023-04-15T01:08:02;85094.97;;;28.98;10.19
73974;BME280;62336;-26.094;27.994;2023-04-15T01:10:28;85097.83;;;28.90;10.27
73974;BME280;62336;-26.094;27.994;2023-04-15T01:12:53;85107.16;;;29.03;10.59
73974;BME280;62336;-26.094;27.994;2023-04-15T01:15:19;85112.73;;;28.62;10.60
73974;BME280;62336;-26.094;27.994;2023-04-15T01:17:44;85117.31;;;28.43;10.49
73974;BME280;62336;-26.094;27.994;2023-04-15T01:20:10;85120.68;;;28.52;10.48
73974;BME280;62336;-26.094;27.994;2023-04-15T01:22:35;85119.51;;;28.43;10.36
73974;BME280;62336;-26.094;27.994;2023-04-15T01:25:03;85118.09;;;28.60;10.36
73974;BME280;62336;-26.094;27.994;2023-04-15T01:27:26;85117.95;;;28.39;10.39
73974;BME280;62336;-26.094;27.994;2023-04-15T01:29:57;85120.45;;;27.99;10.95
73974;BME280;62336;-26.094;27.994;2023-04-15T01:32:18;85123.43;;;28.36;11.01
73974;BME280;62336;-26.094;27.994;2023-04-15T01:34:44;85124.51;;;28.54;10.68
73974;BME280;62336;-26.094;27.994;2023-04-15T01:37:09;85130.60;;;28.76;10.91
73974;BME280;62336;-26.094;27.994;2023-04-15T01:39:35;85133.15;;;28.22;11.08
73974;BME280;62336;-26.094;27.994;2023-04-15T01:42:01;85136.46;;;27.81;11.31
73974;BME280;62336;-26.094;27.994;2023-04-15T01:44:27;85134.31;;;28.16;11.26
73974;BME280;62336;-26.094;27.994;2023-04-15T01:46:53;85135.95;;;28.13;11.34
73974;BME280;62336;-26.094;27.994;2023-04-15T01:49:18;85141.80;;;27.58;11.70
73974;BME280;62336;-26.094;27.994;2023-04-15T01:54:08;85139.91;;;27.29;11.83
73974;BME280;62336;-26.094;27.994;2023-04-15T01:56:33;85137.50;;;27.25;12.07
73974;BME280;62336;-26.094;27.994;2023-04-15T01:58:59;85136.30;;;27.70;11.90
73974;BME280;62336;-26.094;27.994;2023-04-15T02:01:23;85141.36;;;27.16;12.21
73974;BME280;62336;-26.094;27.994;2023-04-15T02:03:49;85143.73;;;27.09;12.41
73974;BME280;62336;-26.094;27.994;2023-04-15T02:06:13;85148.90;;;27.62;12.01
73974;BME280;62336;-26.094;27.994;2023-04-15T02:08:38;85151.27;;;27.01;12.37
73974;BME280;62336;-26.094;27.994;2023-04-15T02:11:04;85147.87;;;27.51;12.34
73974;BME280;62336;-26.094;27.994;2023-04-15T02:13:28;85148.49;;;27.46;12.45
73974;BME280;62336;-26.094;27.994;2023-04-15T02:15:54;85149.44;;;26.64;12.82
73974;BME280;62336;-26.094;27.994;2023-04-15T02:18:18;85158.64;;;27.02;12.46
73974;BME280;62336;-26.094;27.994;2023-04-15T02:20:44;85162.60;;;26.54;12.48
73974;BME280;62336;-26.094;27.994;2023-04-15T02:23:09;85167.65;;;26.27;12.98
73974;BME280;62336;-26.094;27.994;2023-04-15T02:25:34;85162.88;;;26.53;12.98
73974;BME280;62336;-26.094;27.994;2023-04-15T02:27:59;85170.61;;;26.52;12.94
73974;BME280;62336;-26.094;27.994;2023-04-15T02:30:25;85177.02;;;26.76;13.07
73974;BME280;62336;-26.094;27.994;2023-04-15T02:32:50;85180.07;;;27.10;13.14
73974;BME280;62336;-26.094;27.994;2023-04-15T02:35:14;85180.62;;;26.58;13.26
73974;BME280;62336;-26.094;27.994;2023-04-15T02:37:39;85182.32;;;26.26;13.30
73974;BME280;62336;-26.094;27.994;2023-04-15T02:40:06;85184.92;;;26.77;13.56
73974;BME280;62336;-26.094;27.994;2023-04-15T02:42:30;85186.08;;;26.62;13.48
73974;BME280;62336;-26.094;27.994;2023-04-15T02:44:56;85181.10;;;26.69;13.57
73974;BME280;62336;-26.094;27.994;2023-04-15T02:47:22;85177.04;;;27.09;13.60
73974;BME280;62336;-26.094;27.994;2023-04-15T02:49:47;85177.99;;;26.76;13.96
73974;BME280;62336;-26.094;27.994;2023-04-15T02:52:12;85182.14;;;26.83;13.97
73974;BME280;62336;-26.094;27.994;2023-04-15T02:54:37;85187.33;;;26.12;14.06
73974;BME280;62336;-26.094;27.994;2023-04-15T02:57:02;85190.41;;;26.31;14.10
73974;BME280;62336;-26.094;27.994;2023-04-15T02:59:27;85191.51;;;26.61;14.48
73974;BME280;62336;-26.094;27.994;2023-04-15T03:01:52;85188.30;;;26.51;14.41
73974;BME280;62336;-26.094;27.994;2023-04-15T03:04:18;85190.74;;;26.78;14.16
73974;BME280;62336;-26.094;27.994;2023-04-15T03:06:43;85196.44;;;26.69;14.42
73974;BME280;62336;-26.094;27.994;2023-04-15T03:09:08;85200.30;;;26.58;14.27
73974;BME280;62336;-26.094;27.994;2023-04-15T03:11:33;85202.85;;;26.23;14.69
73974;BME280;62336;-26.094;27.994;2023-04-15T03:13:58;85206.17;;;26.47;14.78
73974;BME280;62336;-26.094;27.994;2023-04-15T03:16:24;85211.41;;;26.46;14.52
73974;BME280;62336;-26.094;27.994;2023-04-15T03:18:49;85207.89;;;26.86;14.28
73974;BME280;62336;-26.094;27.994;2023-04-15T03:21:14;85207.43;;;27.06;14.19
73974;BME280;62336;-26.094;27.994;2023-04-15T03:23:39;85213.16;;;27.19;14.03
73974;BME280;62336;-26.094;27.994;2023-04-15T03:26:04;85213.20;;;26.75;14.02
73974;BME280;62336;-26.094;27.994;2023-04-15T03:28:29;85213.97;;;27.25;14.03
73974;BME280;62336;-26.094;27.994;2023-04-15T03:30:55;85212.67;;;26.76;13.98
73974;BME280;62336;-26.094;27.994;2023-04-15T03:33:20;85212.54;;;26.97;13.97
73974;BME280;62336;-26.094;27.994;2023-04-15T03:35:45;85213.98;;;27.26;13.63
73974;BME280;62336;-26.094;27.994;2023-04-15T03:38:10;85221.08;;;26.64;13.84
73974;BME280;62336;-26.094;27.994;2023-04-15T03:40:37;85223.27;;;26.71;13.99
73974;BME280;62336;-26.094;27.994;2023-04-15T03:43:01;85221.18;;;26.56;13.76
73974;BME280;62336;-26.094;27.994;2023-04-15T03:45:26;85223.04;;;27.05;13.56
73974;BME280;62336;-26.094;27.994;2023-04-15T03:47:51;85224.89;;;26.95;13.62
73974;BME280;62336;-26.094;27.994;2023-04-15T03:50:16;85226.05;;;26.66;13.55
73974;BME280;62336;-26.094;27.994;2023-04-15T03:52:42;85230.04;;;26.94;13.48
73974;BME280;62336;-26.094;27.994;2023-04-15T03:55:07;85235.43;;;27.00;13.32
73974;BME280;62336;-26.094;27.994;2023-04-15T03:57:32;85239.78;;;26.37;13.69
73974;BME280;62336;-26.094;27.994;2023-04-15T03:59:57;85239.52;;;26.30;13.63
73974;BME280;62336;-26.094;27.994;2023-04-15T04:02:22;85243.51;;;26.82;13.63
73974;BME280;62336;-26.094;27.994;2023-04-15T04:04:47;85254.76;;;26.85;13.54
73974;BME280;62336;-26.094;27.994;2023-04-15T04:07:15;85259.24;;;26.65;13.61
73974;BME280;62336;-26.094;27.994;2023-04-15T04:09:37;85258.07;;;26.55;14.22
73974;BME280;62336;-26.094;27.994;2023-04-15T04:12:02;85265.74;;;26.48;13.75
73974;BME280;62336;-26.094;27.994;2023-04-15T04:14:27;85269.89;;;26.96;13.65
73974;BME280;62336;-26.094;27.994;2023-04-15T04:16:52;85279.42;;;26.88;13.61
73974;BME280;62336;-26.094;27.994;2023-04-15T04:19:18;85275.34;;;27.15;13.39
73974;BME280;62336;-26.094;27.994;2023-04-15T04:21:43;85281.61;;;26.87;13.50
73974;BME280;62336;-26.094;27.994;2023-04-15T04:24:08;85277.79;;;26.74;13.39
73974;BME280;62336;-26.094;27.994;2023-04-15T04:26:34;85282.20;;;26.55;13.43
73974;BME280;62336;-26.094;27.994;2023-04-15T04:28:59;85290.04;;;26.63;13.63
73974;BME280;62336;-26.094;27.994;2023-04-15T04:31:24;85292.98;;;26.92;13.23
73974;BME280;62336;-26.094;27.994;2023-04-15T04:33:50;85295.76;;;26.52;13.46
73974;BME280;62336;-26.094;27.994;2023-04-15T04:36:14;85301.13;;;26.77;13.62
73974;BME280;62336;-26.094;27.994;2023-04-15T04:38:39;85301.21;;;27.19;13.57
73974;BME280;62336;-26.094;27.994;2023-04-15T04:41:05;85298.16;;;27.19;13.90
73974;BME280;62336;-26.094;27.994;2023-04-15T05:55:19;85438.15;;;8.07;58.73
73974;BME280;62336;-26.094;27.994;2023-04-15T05:57:38;85430.01;;;12.96;45.75
73974;BME280;62336;-26.094;27.994;2023-04-15T06:00:06;85431.57;;;16.09;37.59
73974;BME280;62336;-26.094;27.994;2023-04-15T06:02:29;85433.62;;;18.23;33.48
73974;BME280;62336;-26.094;27.994;2023-04-15T06:04:54;85436.38;;;20.04;30.54
73974;BME280;62336;-26.094;27.994;2023-04-15T06:07:22;85436.89;;;21.49;27.87
73974;BME280;62336;-26.094;27.994;2023-04-15T06:09:45;85438.36;;;22.45;25.96
73974;BME280;62336;-26.094;27.994;2023-04-15T06:12:12;85444.01;;;23.54;23.77
73974;BME280;62336;-26.094;27.994;2023-04-15T06:14:37;85445.95;;;24.73;22.70
73974;BME280;62336;-26.094;27.994;2023-04-15T06:17:03;85445.49;;;25.78;21.46
73974;BME280;62336;-26.094;27.994;2023-04-15T06:19:27;85450.62;;;25.96;20.95
73974;BME280;62336;-26.094;27.994;2023-04-15T06:21:53;85453.95;;;27.45;19.52
73974;BME280;62336;-26.094;27.994;2023-04-15T06:24:18;85455.99;;;27.15;19.26
73974;BME280;62336;-26.094;27.994;2023-04-15T06:26:43;85456.76;;;27.52;19.41
73974;BME280;62336;-26.094;27.994;2023-04-15T06:29:09;85458.99;;;27.94;18.96
73974;BME280;62336;-26.094;27.994;2023-04-15T06:31:35;85461.48;;;27.96;18.65
73974;BME280;62336;-26.094;27.994;2023-04-15T06:33:59;85463.77;;;28.37;18.30
73974;BME280;62336;-26.094;27.994;2023-04-15T06:36:24;85460.92;;;28.54;18.07
73974;BME280;62336;-26.094;27.994;2023-04-15T06:38:49;85462.84;;;28.91;18.11
73974;BME280;62336;-26.094;27.994;2023-04-15T06:41:16;85462.79;;;28.73;17.99
73974;BME280;62336;-26.094;27.994;2023-04-15T06:43:41;85462.01;;;29.03;17.72
73974;BME280;62336;-26.094;27.994;2023-04-15T06:46:06;85464.45;;;29.48;17.48
73974;BME280;62336;-26.094;27.994;2023-04-15T06:48:32;85464.91;;;29.60;17.25
73974;BME280;62336;-26.094;27.994;2023-04-15T06:50:58;85470.02;;;29.65;17.15
73974;BME280;62336;-26.094;27.994;2023-04-15T06:53:25;85473.81;;;29.88;17.11
73974;BME280;62336;-26.094;27.994;2023-04-15T06:55:48;85476.87;;;30.22;16.86
73974;BME280;62336;-26.094;27.994;2023-04-15T06:58:13;85482.95;;;30.12;17.24
73974;BME280;62336;-26.094;27.994;2023-04-15T07:00:38;85482.91;;;30.63;16.70
73974;BME280;62336;-26.094;27.994;2023-04-15T07:03:03;85483.99;;;30.61;16.78
73974;BME280;62336;-26.094;27.994;2023-04-15T07:05:28;85486.20;;;30.94;16.85
73974;BME280;62336;-26.094;27.994;2023-04-15T07:07:54;85487.29;;;30.59;17.43
73974;BME280;62336;-26.094;27.994;2023-04-15T07:10:20;85489.85;;;31.22;16.94
73974;BME280;62336;-26.094;27.994;2023-04-15T07:12:45;85494.85;;;31.06;17.03
73974;BME280;62336;-26.094;27.994;2023-04-15T07:15:12;85498.12;;;31.04;17.16
73974;BME280;62336;-26.094;27.994;2023-04-15T07:17:36;85500.28;;;30.58;17.54
73974;BME280;62336;-26.094;27.994;2023-04-15T07:20:02;85506.39;;;31.40;17.23
73974;BME280;62336;-26.094;27.994;2023-04-15T07:22:27;85507.04;;;31.51;17.38
73974;BME280;62336;-26.094;27.994;2023-04-15T07:24:53;85512.60;;;31.30;17.51
73974;BME280;62336;-26.094;27.994;2023-04-15T07:27:18;85512.46;;;31.40;17.98
73974;BME280;62336;-26.094;27.994;2023-04-15T07:29:45;85513.67;;;31.58;17.92
73974;BME280;62336;-26.094;27.994;2023-04-15T07:32:09;85504.66;;;31.64;17.96
73974;BME280;62336;-26.094;27.994;2023-04-15T07:34:36;85504.20;;;31.23;18.27
73974;BME280;62336;-26.094;27.994;2023-04-15T07:37:00;85508.78;;;31.52;18.37
73974;BME280;62336;-26.094;27.994;2023-04-15T07:39:25;85507.73;;;31.71;18.08
73974;BME280;62336;-26.094;27.994;2023-04-15T07:41:50;85512.15;;;31.63;18.41
73974;BME280;62336;-26.094;27.994;2023-04-15T07:44:16;85514.73;;;31.37;18.72
73974;BME280;62336;-26.094;27.994;2023-04-15T07:46:43;85510.87;;;31.83;18.41
73974;BME280;62336;-26.094;27.994;2023-04-15T07:49:09;85510.70;;;32.15;18.50
73974;BME280;62336;-26.094;27.994;2023-04-15T07:51:34;85508.07;;;32.22;18.27
73974;BME280;62336;-26.094;27.994;2023-04-15T07:53:58;85512.15;;;32.19;18.15
73974;BME280;62336;-26.094;27.994;2023-04-15T07:56:24;85507.00;;;32.58;17.68
73974;BME280;62336;-26.094;27.994;2023-04-15T07:58:49;85509.03;;;32.31;18.07
73974;BME280;62336;-26.094;27.994;2023-04-15T08:01:14;85501.51;;;32.34;17.96
73974;BME280;62336;-26.094;27.994;2023-04-15T08:03:39;85503.77;;;32.33;18.00
73974;BME280;62336;-26.094;27.994;2023-04-15T08:06:05;85500.86;;;32.63;17.62
73974;BME280;62336;-26.094;27.994;2023-04-15T08:08:32;85509.75;;;32.98;17.62
73974;BME280;62336;-26.094;27.994;2023-04-15T08:10:57;85510.43;;;32.49;17.67
73974;BME280;62336;-26.094;27.994;2023-04-15T08:13:21;85511.92;;;32.57;17.49
73974;BME280;62336;-26.094;27.994;2023-04-15T08:15:52;85500.01;;;33.17;17.48
73974;BME280;62336;-26.094;27.994;2023-04-15T08:18:12;85503.45;;;33.31;17.43
73974;BME280;62336;-26.094;27.994;2023-04-15T08:20:37;85505.00;;;33.26;17.33
73974;BME280;62336;-26.094;27.994;2023-04-15T08:23:03;85499.52;;;32.96;17.61
73974;BME280;62336;-26.094;27.994;2023-04-15T08:25:29;85497.45;;;32.32;17.82
73974;BME280;62336;-26.094;27.994;2023-04-15T08:27:55;85499.51;;;32.91;17.59
73974;BME280;62336;-26.094;27.994;2023-04-15T08:30:24;85496.19;;;32.95;17.51
73974;BME280;62336;-26.094;27.994;2023-04-15T08:32:45;85498.59;;;33.79;17.08
73974;BME280;62336;-26.094;27.994;2023-04-15T08:35:11;85490.34;;;33.66;17.19
73974;BME280;62336;-26.094;27.994;2023-04-15T08:37:39;85488.66;;;33.20;17.34
73974;BME280;62336;-26.094;27.994;2023-04-15T08:40:01;85491.72;;;33.63;17.07
73974;BME280;62336;-26.094;27.994;2023-04-15T08:42:36;85488.18;;;33.51;17.14
73974;BME280;62336;-26.094;27.994;2023-04-15T08:44:52;85489.24;;;33.38;17.32
73974;BME280;62336;-26.094;27.994;2023-04-15T08:47:20;85488.57;;;32.87;17.69
73974;BME280;62336;-26.094;27.994;2023-04-15T08:49:42;85488.53;;;33.14;17.40
73974;BME280;62336;-26.094;27.994;2023-04-15T08:52:08;85483.54;;;33.33;17.71
73974;BME280;62336;-26.094;27.994;2023-04-15T08:54:34;85478.71;;;32.99;17.42
73974;BME280;62336;-26.094;27.994;2023-04-15T08:56:59;85486.27;;;33.32;17.37
73974;BME280;62336;-26.094;27.994;2023-04-15T08:59:25;85485.43;;;33.03;17.53
73974;BME280;62336;-26.094;27.994;2023-04-15T09:01:51;85482.85;;;33.25;17.66
73974;BME280;62336;-26.094;27.994;2023-04-15T09:04:16;85480.10;;;33.07;17.50
73974;BME280;62336;-26.094;27.994;2023-04-15T09:06:40;85477.51;;;33.36;16.97
73974;BME280;62336;-26.094;27.994;2023-04-15T09:09:05;85475.09;;;33.42;17.28
73974;BME280;62336;-26.094;27.994;2023-04-15T09:11:31;85471.13;;;33.37;17.17
73974;BME280;62336;-26.094;27.994;2023-04-15T09:13:56;85466.52;;;33.60;17.59
73974;BME280;62336;-26.094;27.994;2023-04-15T09:16:21;85463.29;;;33.08;17.18
73974;BME280;62336;-26.094;27.994;2023-04-15T09:18:47;85465.98;;;33.22;17.25
73974;BME280;62336;-26.094;27.994;2023-04-15T09:21:14;85466.46;;;33.23;17.47
73974;BME280;62336;-26.094;27.994;2023-04-15T09:23:39;85458.81;;;33.43;16.97
73974;BME280;62336;-26.094;27.994;2023-04-15T09:26:03;85455.96;;;34.01;17.38
73974;BME280;62336;-26.094;27.994;2023-04-15T09:28:30;85450.84;;;33.90;16.77
73974;BME280;62336;-26.094;27.994;2023-04-15T09:30:56;85451.83;;;33.84;16.36
73974;BME280;62336;-26.094;27.994;2023-04-15T09:33:22;85449.59;;;33.88;17.10
73974;BME280;62336;-26.094;27.994;2023-04-15T09:35:58;85447.06;;;33.57;17.09
73974;BME280;62336;-26.094;27.994;2023-04-15T09:38:11;85443.58;;;33.72;16.52
73974;BME280;62336;-26.094;27.994;2023-04-15T09:40:37;85442.08;;;33.48;16.45
73974;BME280;62336;-26.094;27.994;2023-04-15T09:43:01;85442.69;;;34.10;16.53
73974;BME280;62336;-26.094;27.994;2023-04-15T09:45:28;85431.87;;;33.36;16.64
73974;BME280;62336;-26.094;27.994;2023-04-15T09:47:52;85433.00;;;33.90;16.54
73974;BME280;62336;-26.094;27.994;2023-04-15T09:50:18;85427.29;;;33.93;16.59
73974;BME280;62336;-26.094;27.994;2023-04-15T09:52:44;85421.04;;;33.69;16.44
73974;BME280;62336;-26.094;27.994;2023-04-15T09:55:18;85416.83;;;34.13;16.49
73974;BME280;62336;-26.094;27.994;2023-04-15T09:57:35;85413.71;;;34.13;15.68
73974;BME280;62336;-26.094;27.994;2023-04-15T09:59:58;85413.85;;;34.14;15.99
73974;BME280;62336;-26.094;27.994;2023-04-15T10:02:24;85409.58;;;34.28;15.96
73974;BME280;62336;-26.094;27.994;2023-04-15T10:04:49;85410.24;;;34.32;15.40
73974;BME280;62336;-26.094;27.994;2023-04-15T10:07:14;85406.56;;;34.81;14.70
73974;BME280;62336;-26.094;27.994;2023-04-15T10:09:40;85397.98;;;34.01;15.24
73974;BME280;62336;-26.094;27.994;2023-04-15T10:12:06;85394.69;;;34.66;15.25
73974;BME280;62336;-26.094;27.994;2023-04-15T10:14:33;85391.84;;;34.61;15.50
73974;BME280;62336;-26.094;27.994;2023-04-15T10:16:57;85386.90;;;34.77;15.01
73974;BME280;62336;-26.094;27.994;2023-04-15T10:19:26;85381.60;;;34.83;14.73
73974;BME280;62336;-26.094;27.994;2023-04-15T10:21:47;85379.47;;;35.09;14.59
73974;BME280;62336;-26.094;27.994;2023-04-15T10:24:13;85378.76;;;34.70;15.06
73974;BME280;62336;-26.094;27.994;2023-04-15T10:26:38;85377.83;;;34.76;14.95
73974;BME280;62336;-26.094;27.994;2023-04-15T10:29:03;85378.23;;;35.19;14.67
73974;BME280;62336;-26.094;27.994;2023-04-15T10:31:29;85376.66;;;34.90;14.57
73974;BME280;62336;-26.094;27.994;2023-04-15T10:33:54;85374.04;;;34.31;15.06
73974;BME280;62336;-26.094;27.994;2023-04-15T10:36:20;85370.82;;;34.35;15.11
73974;BME280;62336;-26.094;27.994;2023-04-15T10:38:45;85377.53;;;34.69;15.35
73974;BME280;62336;-26.094;27.994;2023-04-15T10:41:17;85368.63;;;34.51;15.40
73974;BME280;62336;-26.094;27.994;2023-04-15T10:43:36;85374.25;;;34.97;15.54
73974;BME280;62336;-26.094;27.994;2023-04-15T10:46:03;85370.45;;;35.55;14.86
73974;BME280;62336;-26.094;27.994;2023-04-15T10:48:27;85365.67;;;35.10;15.37
73974;BME280;62336;-26.094;27.994;2023-04-15T10:50:57;85358.76;;;34.42;15.79
73974;BME280;62336;-26.094;27.994;2023-04-15T10:53:26;85361.96;;;35.10;16.25
73974;BME280;62336;-26.094;27.994;2023-04-15T10:55:42;85357.21;;;35.02;14.91
73974;BME280;62336;-26.094;27.994;2023-04-15T10:58:09;85359.19;;;35.60;14.24
73974;BME280;62336;-26.094;27.994;2023-04-15T11:00:37;85352.43;;;35.45;14.25
73974;BME280;62336;-26.094;27.994;2023-04-15T11:03:04;85350.48;;;35.00;14.49
73974;BME280;62336;-26.094;27.994;2023-04-15T11:07:57;85340.81;;;35.03;14.60
73974;BME280;62336;-26.094;27.994;2023-04-15T11:12:41;85337.15;;;35.28;14.63
73974;BME280;62336;-26.094;27.994;2023-04-15T11:15:26;85330.66;;;35.23;14.96
73974;BME280;62336;-26.094;27.994;2023-04-15T11:17:32;85335.20;;;35.71;14.59
73974;BME280;62336;-26.094;27.994;2023-04-15T11:19:57;85337.93;;;35.68;14.31
73974;BME280;62336;-26.094;27.994;2023-04-15T11:22:23;85335.01;;;35.11;14.68
73974;BME280;62336;-26.094;27.994;2023-04-15T11:24:48;85332.76;;;35.63;14.79
73974;BME280;62336;-26.094;27.994;2023-04-15T11:27:21;85333.55;;;35.70;14.83
73974;BME280;62336;-26.094;27.994;2023-04-15T11:29:39;85333.15;;;35.79;14.58
73974;BME280;62336;-26.094;27.994;2023-04-15T11:32:07;85332.18;;;35.79;14.26
73974;BME280;62336;-26.094;27.994;2023-04-15T11:34:31;85324.66;;;35.41;14.74
73974;BME280;62336;-26.094;27.994;2023-04-15T11:36:58;85325.13;;;35.80;14.76
73974;BME280;62336;-26.094;27.994;2023-04-15T11:39:22;85320.80;;;35.60;14.95
73974;BME280;62336;-26.094;27.994;2023-04-15T11:41:47;85322.87;;;35.35;14.43
73974;BME280;62336;-26.094;27.994;2023-04-15T11:44:16;85323.47;;;34.83;14.80
73974;BME280;62336;-26.094;27.994;2023-04-15T11:46:38;85323.00;;;34.72;14.62
73974;BME280;62336;-26.094;27.994;2023-04-15T11:49:04;85321.36;;;35.20;14.42
73974;BME280;62336;-26.094;27.994;2023-04-15T11:51:32;85319.90;;;35.40;15.28
73974;BME280;62336;-26.094;27.994;2023-04-15T11:53:55;85318.92;;;35.44;14.20
73974;BME280;62336;-26.094;27.994;2023-04-15T11:56:22;85307.36;;;35.48;14.45
73974;BME280;62336;-26.094;27.994;2023-04-15T11:58:46;85311.63;;;36.18;14.09
73974;BME280;62336;-26.094;27.994;2023-04-15T12:01:12;85313.33;;;36.12;13.66
73974;BME280;62336;-26.094;27.994;2023-04-15T12:03:38;85317.33;;;36.00;13.93
73974;BME280;62336;-26.094;27.994;2023-04-15T12:06:06;85313.79;;;35.67;14.31
73974;BME280;62336;-26.094;27.994;2023-04-15T12:10:58;85307.51;;;35.94;14.15
73974;BME280;62336;-26.094;27.994;2023-04-15T12:13:19;85305.22;;;35.68;13.67
73974;BME280;62336;-26.094;27.994;2023-04-15T12:15:44;85306.75;;;35.88;13.60
73974;BME280;62336;-26.094;27.994;2023-04-15T12:18:17;85308.62;;;35.64;12.74
73974;BME280;62336;-26.094;27.994;2023-04-15T12:20:42;85309.19;;;35.59;13.42
73974;BME280;62336;-26.094;27.994;2023-04-15T12:23:05;85307.98;;;35.39;14.07
73974;BME280;62336;-26.094;27.994;2023-04-15T12:25:33;85304.16;;;34.96;14.55
73974;BME280;62336;-26.094;27.994;2023-04-15T12:27:52;85305.97;;;35.29;14.52
73974;BME280;62336;-26.094;27.994;2023-04-15T12:30:16;85304.17;;;35.37;14.13
73974;BME280;62336;-26.094;27.994;2023-04-15T12:32:41;85303.99;;;34.80;14.05
73974;BME280;62336;-26.094;27.994;2023-04-15T12:35:08;85301.38;;;34.89;13.72
73974;BME280;62336;-26.094;27.994;2023-04-15T12:37:32;85299.50;;;34.54;13.89
73974;BME280;62336;-26.094;27.994;2023-04-15T12:39:57;85295.14;;;34.89;14.69
73974;BME280;62336;-26.094;27.994;2023-04-15T12:42:23;85291.06;;;35.20;13.19
73974;BME280;62336;-26.094;27.994;2023-04-15T12:44:48;85292.44;;;35.49;13.05
73974;BME280;62336;-26.094;27.994;2023-04-15T12:47:14;85291.62;;;35.43;13.68
73974;BME280;62336;-26.094;27.994;2023-04-15T12:49:39;85289.18;;;36.00;13.48
73974;BME280;62336;-26.094;27.994;2023-04-15T12:52:06;85286.81;;;35.61;13.57
73974;BME280;62336;-26.094;27.994;2023-04-15T12:54:31;85284.68;;;36.25;12.61
73974;BME280;62336;-26.094;27.994;2023-04-15T12:56:56;85283.47;;;36.15;12.93
73974;BME280;62336;-26.094;27.994;2023-04-15T12:59:22;85281.76;;;35.47;13.25
73974;BME280;62336;-26.094;27.994;2023-04-15T13:01:48;85283.20;;;36.04;13.17
73974;BME280;62336;-26.094;27.994;2023-04-15T13:04:13;85278.53;;;36.28;13.03
73974;BME280;62336;-26.094;27.994;2023-04-15T13:06:38;85276.11;;;36.23;12.97
73974;BME280;62336;-26.094;27.994;2023-04-15T13:09:04;85274.65;;;36.22;12.97
73974;BME280;62336;-26.094;27.994;2023-04-15T13:11:30;85276.08;;;36.33;12.72
73974;BME280;62336;-26.094;27.994;2023-04-15T13:13:57;85268.53;;;36.65;12.63
73974;BME280;62336;-26.094;27.994;2023-04-15T13:16:20;85272.01;;;36.53;12.91
73974;BME280;62336;-26.094;27.994;2023-04-15T13:18:46;85271.66;;;36.37;12.65
73974;BME280;62336;-26.094;27.994;2023-04-15T13:21:11;85273.89;;;36.19;12.94
73974;BME280;62336;-26.094;27.994;2023-04-15T13:23:36;85274.22;;;35.71;13.39
73974;BME280;62336;-26.094;27.994;2023-04-15T13:26:01;85273.42;;;36.19;12.89
73974;BME280;62336;-26.094;27.994;2023-04-15T13:28:26;85268.34;;;36.45;13.51
73974;BME280;62336;-26.094;27.994;2023-04-15T13:30:51;85269.13;;;36.21;13.20
73974;BME280;62336;-26.094;27.994;2023-04-15T13:33:17;85269.53;;;36.12;12.94
73974;BME280;62336;-26.094;27.994;2023-04-15T13:35:43;85266.25;;;36.08;13.16
73974;BME280;62336;-26.094;27.994;2023-04-15T13:38:08;85268.28;;;35.80;13.06
73974;BME280;62336;-26.094;27.994;2023-04-15T13:40:34;85264.79;;;35.94;13.09
73974;BME280;62336;-26.094;27.994;2023-04-15T13:42:59;85267.65;;;36.59;13.14
73974;BME280;62336;-26.094;27.994;2023-04-15T13:45:25;85265.04;;;36.49;13.27
73974;BME280;62336;-26.094;27.994;2023-04-15T13:47:50;85266.49;;;36.02;13.01
73974;BME280;62336;-26.094;27.994;2023-04-15T13:50:16;85270.16;;;35.84;13.55